Flight Track Log - Related Links

Times and Time Zones

All times are in EDT time to prevent confusion due to time zone crossing. See the DAL268 flight status page for this flight to view local times or setup timezone preferences in your user account.

Time Position Orientation Groundspeed Altitude Reporting Facility
EDT Latitude Longitude Course Direction KTS MPH feet Rate Location/Type
Sat 11:35:28 PM 40.6290 -73.7830 North  Level FlightAware ADS-B
Sat 11:40:12 PM 40.6290 -73.7820 90° East 12 14 18 Level FlightAware ADS-B
Sat 11:41:22 PM 40.6300 -73.7820 360° North 2 2 23 Level FlightAware ADS-B
Sat 11:42:06 PM 40.6290 -73.7810 143° Southeast 11 13 24 Level FlightAware ADS-B
Sat 11:42:34 PM 40.6280 -73.7810 180° South 11 13 26 Level FlightAware ADS-B
Sat 11:45:00 PM 40.5000 -73.3782 90° East  Level FlightAware Approximate
Sat 11:46:00 PM 40.4555 -73.2109 105° East  Level FlightAware Approximate
Sat 11:47:00 PM 40.3946 -73.0503 114° Southeast  Level FlightAware Approximate
Sat 11:47:26 PM 40.6280 -73.7800 114° Southeast 22 25  Level FlightAware ADS-B
Sat 11:47:40 PM 40.6270 -73.7800 180° South 18 21 39 Level FlightAware ADS-B
Sat 11:48:08 PM 40.6280 -73.7790 37° Northeast 25 29 40 Level FlightAware ADS-B
Sat 11:48:22 PM 40.6290 -73.7790 360° North 26 30 42 Level FlightAware ADS-B
Sat 11:48:38 PM 40.6300 -73.7780 37° Northeast 29 33 43 Level FlightAware ADS-B
Sat 11:49:07 PM 40.6310 -73.7770 37° Northeast 32 37 44 Level FlightAware ADS-B
Sat 11:49:16 PM 40.6310 -73.7760 90° East 33 38 47 Level FlightAware ADS-B
Sat 11:49:32 PM 40.6320 -73.7760 360° North 32 37 47 Level FlightAware ADS-B
Sat 11:49:46 PM 40.6330 -73.7750 37° Northeast 34 39 49 Level FlightAware ADS-B
Sat 11:50:00 PM 40.6340 -73.7750 360° North 33 38 50 Level FlightAware ADS-B
Sat 11:50:30 PM 40.6360 -73.7730 37° Northeast 29 33 52 Level FlightAware ADS-B
Sat 11:50:58 PM 40.6370 -73.7730 360° North 23 26 56 Level FlightAware ADS-B
Sat 11:51:10 PM 40.6370 -73.7720 90° East 26 30 59 Level FlightAware ADS-B
Sat 11:51:26 PM 40.6380 -73.7720 360° North 25 29 61 Level FlightAware ADS-B
Sat 11:51:52 PM 40.6390 -73.7720 360° North 26 30 64 Level FlightAware ADS-B
Sat 11:52:20 PM 40.6400 -73.7710 37° Northeast 18 21 69 Level FlightAware ADS-B
Sat 11:53:02 PM 40.6410 -73.7700 37° Northeast 11 13 75 Level FlightAware ADS-B
Sat 11:53:46 PM 40.6420 -73.7690 37° Northeast 2 2 86 Level FlightAware ADS-B
Sat 11:55:34 PM 40.6410 -73.7690 180° South 19 22 102 Level FlightAware ADS-B
Sat 11:55:46 PM 40.6410 -73.7680 90° East 18 21 188 Level FlightAware ADS-B
Sat 11:56:18 PM 40.6400 -73.7690 217° Southwest 13 15 207 Level FlightAware ADS-B
Sat 11:56:46 PM 40.6380 -73.7700 201° Southwest 63 72 286 Level FlightAware ADS-B
Sat 11:57:14 PM 40.6260 -73.7800 212° Southwest 155 178 429 Level FlightAware ADS-B
Sat 11:57:42 PM 40.6070 -73.7950 211° Southwest 177 204 400 1,393 Climbing FlightAware ADS-B
Sat 11:58:10 PM 40.5860 -73.8110 210° Southwest 186 214 1,300 1,364 Climbing FlightAware ADS-B
Sat 11:58:26 PM 40.5720 -73.8160 195° South 218 251 1,400 818 Climbing FlightAware ADS-B
Sat 11:58:54 PM 40.5440 -73.7980 154° Southeast 257 296 1,900 1,050 Climbing FlightAware ADS-B
Sat 11:59:06 PM 40.5370 -73.7820 120° Southeast 269 310 2,100 1,071 Climbing FlightAware ADS-B
Sat 11:59:22 PM 40.5360 -73.7540 93° East 286 329 2,400 1,364 Climbing FlightAware ADS-B
Sat 11:59:50 PM 40.5440 -73.7060 78° East 301 346 3,100 2,073 Climbing FlightAware ADS-B
Sun 12:00:17 AM 40.5530 -73.6570 76° East 301 346 4,300 2,372 Climbing FlightAware ADS-B
Sun 12:00:33 AM 40.5576 -73.6286 78° East 306 352 4,800 2,143 Climbing FlightAware ADS-B
Sun 12:00:59 AM 40.5567 -73.5790 91° East 310 357 5,800 2,333 Climbing FlightAware ADS-B
Sun 12:01:09 AM 40.5544 -73.5608 99° East 312 359 6,200 2,250 Climbing FlightAware ADS-B
Sun 12:01:15 AM 40.5524 -73.5493 103° East 314 361 6,400 1,500 Climbing FlightAware ADS-B
Sun 12:01:21 AM 40.5499 -73.5396 109° East 316 364 6,500 2,000 Climbing FlightAware ADS-B
Sun 12:01:36 AM 40.5406 -73.5130 115° Southeast 317 365 7,100 2,200 Climbing FlightAware ADS-B
Sun 12:01:51 AM 40.5312 -73.4866 115° Southeast 321 369 7,600 2,000 Climbing FlightAware ADS-B
Sun 12:02:06 AM 40.5222 -73.4590 113° Southeast 323 372 8,100 2,129 Climbing FlightAware ADS-B
Sun 12:02:22 AM 40.5134 -73.4306 112° Southeast 326 375 8,700 2,323 Climbing FlightAware ADS-B
Sun 12:02:37 AM 40.5043 -73.4016 112° Southeast 326 375 9,300 2,129 Climbing FlightAware ADS-B
Sun 12:02:53 AM 40.4954 -73.3724 112° Southeast 329 379 9,800 1,532 Climbing FlightAware ADS-B
Sun 12:03:24 AM 40.4778 -73.3145 112° Southeast 346 398 10,500 1,300 Climbing FlightAware ADS-B
Sun 12:03:53 AM 40.4597 -73.2548 112° Southeast 367 422 11,100 1,167 Climbing FlightAware ADS-B
Sun 12:04:00 AM 40.4564 -73.2412 108° East 372 428 11,200 923 Climbing FlightAware ADS-B
Sun 12:04:06 AM 40.4540 -73.2266 102° East 377 434 11,300 1,200 Climbing FlightAware ADS-B
Sun 12:04:15 AM 40.4530 -73.2051 93° East 384 442 11,500 1,143 Climbing FlightAware ADS-B
Sun 12:04:27 AM 40.4550 -73.1779 84° East 392 451 11,700 1,000 Climbing FlightAware ADS-B
Sun 12:04:33 AM 40.4576 -73.1638 76° East 395 455 11,800 923 Climbing FlightAware ADS-B
Sun 12:04:40 AM 40.4618 -73.1487 70° East 400 460 11,900 1,000 Climbing FlightAware ADS-B
Sun 12:04:51 AM 40.4716 -73.1252 61° Northeast 407 468 12,100 1,333 Climbing FlightAware ADS-B
Sun 12:04:58 AM 40.4803 -73.1099 53° Northeast 412 474 12,300 1,333 Climbing FlightAware ADS-B
Sun 12:05:09 AM 40.4930 -73.0878 53° Northeast 418 481 12,500 1,548 Climbing FlightAware ADS-B
Sun 12:05:29 AM 40.5132 -73.0448 58° Northeast 425 489 13,100 1,882 Climbing FlightAware ADS-B
Sun 12:06:00 AM 40.5409 -72.9734 63° Northeast 435 501 14,100 1,967 Climbing FlightAware ADS-B
Sun 12:06:30 AM 40.5678 -72.8994 64° Northeast 444 511 15,100 1,967 Climbing FlightAware ADS-B
Sun 12:07:01 AM 40.5949 -72.8233 65° Northeast 451 519 16,100 1,895 Climbing FlightAware ADS-B
Sun 12:07:46 AM 40.6330 -72.7180 64° Northeast 459 528 17,500 1,895 Climbing FlightAware ADS-B
Sun 12:07:58 AM 40.6461 -72.6797 66° East 454 522 17,900 1,786 Climbing FlightAware ADS-B
Sun 12:09:10 AM 40.7120 -72.4940 65° Northeast 477 549 20,000 1,706 Climbing FlightAware ADS-B
Sun 12:09:40 AM 40.7410 -72.4144 64° Northeast 483 556 20,800 1,619 Climbing FlightAware ADS-B
Sun 12:10:13 AM 40.7730 -72.3237 65° Northeast 488 562 21,700 1,563 Climbing FlightAware ADS-B
Sun 12:11:16 AM 40.8330 -72.1550 65° Northeast 496 571 23,300 1,543 Climbing FlightAware ADS-B
Sun 12:11:23 AM 40.8401 -72.1338 66° East 490 564 23,500 1,459 Climbing FlightAware ADS-B
Sun 12:11:53 AM 40.8694 -72.0502 65° Northeast 501 577 24,200 1,279 Climbing FlightAware ADS-B
Sun 12:12:24 AM 40.8992 -71.9650 65° Northeast 504 580 24,800 1,258 Climbing FlightAware ADS-B
Sun 12:12:55 AM 40.9304 -71.8759 65° Northeast 508 585 25,500 1,258 Climbing FlightAware ADS-B
Sun 12:13:26 AM 40.9607 -71.7883 65° Northeast 514 592 26,100 646 Climbing FlightAware ADS-B
Sun 12:14:00 AM 40.9900 -71.7060 65° Northeast 513 590 26,200 767 Climbing FlightAware ADS-B
Sun 12:14:52 AM 41.0420 -71.5550 65° Northeast 519 597 27,200 682 Climbing FlightAware ADS-B
Sun 12:15:28 AM 41.0730 -71.4670 65° Northeast 519 597 27,200 1,852 Level FlightAware ADS-B
Sun 12:16:13 AM 41.1260 -71.3080 66° East 515 593 29,700 2,114 Climbing FlightAware ADS-B
Sun 12:17:13 AM 41.1840 -71.1380 66° East 513 590 30,900 821 Climbing FlightAware ADS-B
Sun 12:17:48 AM 41.2160 -71.0430 66° East 515 593 31,000 55 Climbing FlightAware ADS-B
Sun 12:19:03 AM 41.2880 -70.8290 66° East 513 590 31,000  Level FlightAware ADS-B
Sun 12:19:38 AM 41.3230 -70.7250 66° East 511 588 31,000  Level FlightAware ADS-B
Sun 12:20:28 AM 41.3680 -70.5900 66° East 511 588 31,000  Level FlightAware ADS-B
Sun 12:21:07 AM 41.4000 -70.4940 66° East 511 588 31,000  Level FlightAware ADS-B
Sun 12:21:58 AM 41.4570 -70.3220 66° East 511 588 31,000  Level FlightAware ADS-B
Sun 12:22:49 AM 41.4970 -70.1960 67° East 511 588 31,000  Level FlightAware ADS-B
Sun 12:23:25 AM 41.5250 -70.1070 67° East 511 588 31,000  Level FlightAware ADS-B
Sun 12:24:08 AM 41.5830 -69.9360 66° East 31,000  Level FlightAware ADS-B
Sun 12:25:08 AM 41.6360 -69.7710 67° East 31,000  Level FlightAware ADS-B
Sun 12:25:43 AM 41.6720 -69.6620 66° East 516 594 31,000  Level FlightAware ADS-B
Sun 12:26:35 AM 41.7130 -69.5310 67° East 516 594 31,000  Level FlightAware ADS-B
Sun 12:27:08 AM 41.7510 -69.4150 66° East 521 600 31,000  Level FlightAware ADS-B
Sun 12:27:59 AM 41.7920 -69.2860 67° East 521 600 31,000  Level FlightAware ADS-B
Sun 12:28:36 AM 41.8210 -69.1920 67° East 521 600 31,000  Level FlightAware ADS-B
Sun 12:29:20 AM 41.8710 -69.0320 67° East 522 601 31,000  Level FlightAware ADS-B
Sun 12:29:58 AM 41.9130 -68.9010 67° East 520 598 31,000  Level FlightAware ADS-B
Sun 12:30:44 AM 41.9570 -68.7600 67° East 521 600 31,000  Level FlightAware ADS-B
Sun 12:31:23 AM 41.9920 -68.6460 68° East 521 600 31,000  Level FlightAware ADS-B
Sun 12:32:06 AM 42.0280 -68.5280 68° East 521 600 31,000  Level FlightAware ADS-B
Sun 12:32:42 AM 42.0560 -68.4360 68° East 521 600 31,000  Level FlightAware ADS-B
Sun 12:33:33 AM 42.1140 -68.2490 67° East 523 602 31,000  Level FlightAware ADS-B
Sun 12:34:13 AM 42.1520 -68.1240 68° East 527 606 31,000  Level FlightAware ADS-B
Sun 12:34:51 AM 42.1800 -68.0320 68° East 528 608 31,000  Level FlightAware ADS-B
Sun 12:36:09 AM 42.2510 -67.7970 68° East 525 604 31,000  Level FlightAware ADS-B
Sun 12:36:45 AM 42.2790 -67.7040 68° East 525 604 31,000  Level FlightAware ADS-B
Sun 12:37:33 AM 42.3160 -67.5800 68° East 525 604 31,000  Level FlightAware ADS-B
Sun 12:38:09 AM 42.3430 -67.4870 69° East 525 604 31,000  Level FlightAware ADS-B
Sun 12:38:57 AM 42.3810 -67.3620 68° East 525 604 31,000  Level FlightAware ADS-B
Sun 12:39:33 AM 42.4080 -67.2690 69° East 525 604 31,000  Level FlightAware ADS-B
Sun 12:40:19 AM 42.4440 -67.1500 68° East 525 604 31,000  Level FlightAware ADS-B
Sun 12:40:55 AM 42.4720 -67.0560 68° East 525 604 31,000  Level FlightAware ADS-B
Sun 12:41:43 AM 42.5090 -66.9320 68° East 525 604 31,000  Level FlightAware ADS-B
Sun 12:42:17 AM 42.5350 -66.8430 68° East 525 604 31,000  Level FlightAware ADS-B
Sun 12:42:58 AM 42.6250 -66.5200 69° East 518 596 31,000  Level FlightAware ADS-B
Sun 12:43:48 AM 42.6690 -66.3640 69° East 518 596 31,000  Level FlightAware ADS-B
Sun 12:44:28 AM 42.7030 -66.2430 69° East 519 597 31,000  Level FlightAware ADS-B
Sun 12:45:41 AM 42.7600 -66.0370 69° East 521 600 31,000  Level FlightAware ADS-B
Sun 12:46:38 AM 42.8080 -65.8640 69° East 522 601 31,000  Level FlightAware ADS-B
Sun 12:47:12 AM 42.8320 -65.7750 70° East 522 601 31,000  Level FlightAware ADS-B
Sun 12:48:00 AM 42.8660 -65.6480 70° East 522 601 31,000  Level FlightAware ADS-B
Sun 12:48:36 AM 42.8910 -65.5540 70° East 522 601 31,000  Level FlightAware ADS-B
Sun 12:51:00 AM 43.0383 -65.1057 66° East  Level FlightAware Approximate
Sun 12:51:17 AM 43.0500 -64.9810 66° East 31,000  Level FlightAware ADS-B
Sun 12:51:53 AM 43.0830 -64.8580 70° East 526 605 31,000  Level FlightAware ADS-B
Sun 12:52:38 AM 43.1180 -64.7280 70° East 524 603 31,000  Level FlightAware ADS-B
Sun 12:53:33 AM 43.1660 -64.5480 70° East 521 600 31,000  Level FlightAware ADS-B
Sun 12:54:13 AM 43.1950 -64.4350 71° East 521 600 31,000  Level FlightAware ADS-B
Sun 12:54:23 AM 43.2000 -64.3667 69° East 520 598 31,000  Level Moncton Center
Sun 12:54:56 AM 43.2300 -64.3020 70° East 521 600 31,000  Level FlightAware ADS-B
Sun 12:55:23 AM 43.2500 -64.1833 69° East 520 598 31,000  Level Moncton Center
Sun 12:55:44 AM 43.2640 -64.1750 70° East 521 600 31,000  Level FlightAware ADS-B
Sun 12:56:20 AM 43.2890 -64.0800 70° East 521 600 31,000  Level FlightAware ADS-B
Sun 12:56:23 AM 43.3000 -64.0000 69° East 520 598 31,000  Level Moncton Center
Sun 12:57:23 AM 43.3500 -63.8167 69° East 520 598 31,000  Level Moncton Center
Sun 12:58:23 AM 43.4000 -63.6333 69° East 520 598 31,000  Level Moncton Center
Sun 12:59:00 AM 43.4319 -63.5668 69° East  Level FlightAware Approximate
Sun 12:59:23 AM 43.4500 -63.4333 71° East 520 598 31,000  Level Moncton Center
Sun 01:00:23 AM 43.5000 -63.2500 69° East 520 598 31,000  Level Moncton Center
Sun 01:01:23 AM 43.5500 -63.0667 69° East 520 598 31,000  Level Moncton Center
Sun 01:02:23 AM 43.5833 -62.8667 77° East 520 598 31,000  Level Moncton Center
Sun 01:03:23 AM 43.6333 -62.6667 71° East 520 598 31,000  Level Moncton Center
Sun 01:04:23 AM 43.6833 -62.4833 69° East 520 598 31,000  Level Moncton Center
Sun 01:05:23 AM 43.7167 -62.3000 76° East 520 598 31,000  Level Moncton Center
Sun 01:06:23 AM 43.7667 -62.1000 71° East 520 598 31,000  Level Moncton Center
Sun 01:07:23 AM 43.8000 -61.9167 76° East 520 598 31,000  Level Moncton Center
Sun 01:08:23 AM 43.8500 -61.7167 71° East 520 598 31,000  Level Moncton Center
Sun 01:09:23 AM 43.9000 -61.5500 67° East 520 598 31,000  Level Moncton Center
Sun 01:10:23 AM 43.9500 -61.3333 72° East 520 598 31,000  Level Moncton Center
Sun 01:16:12 AM 44.2020 -60.2470 72° East 522 601 31,000  Level FlightAware ADS-B
Sun 01:16:49 AM 44.2250 -60.1410 73° East 523 602 31,000  Level FlightAware ADS-B
Sun 01:17:37 AM 44.2530 -60.0090 73° East 523 602 31,000  Level FlightAware ADS-B
Sun 01:18:14 AM 44.2860 -59.8560 73° East 522 601 31,000  Level FlightAware ADS-B
Sun 01:19:00 AM 44.3180 -59.7080 73° East 523 602 31,000  Level FlightAware ADS-B
Sun 01:20:01 AM 44.3590 -59.5170 73° East 524 603 31,000  Level FlightAware ADS-B
Sun 01:20:40 AM 44.3870 -59.3780 74° East 524 603 31,000  Level FlightAware ADS-B
Sun 01:21:22 AM 44.4160 -59.2410 73° East 522 601 31,000  Level FlightAware ADS-B
Sun 01:22:04 AM 44.4440 -59.1060 74° East 521 600 31,000  Level FlightAware ADS-B
Sun 01:22:48 AM 44.4730 -58.9640 74° East 520 598 31,000  Level FlightAware ADS-B
Sun 01:23:28 AM 44.5000 -58.8330 74° East 518 596 31,000  Level FlightAware ADS-B
Sun 01:24:10 AM 44.5270 -58.6990 74° East 517 595 31,000  Level FlightAware ADS-B
Sun 01:24:54 AM 44.5550 -58.5580 74° East 518 596 31,000  Level FlightAware ADS-B
Sun 01:25:32 AM 44.5810 -58.4310 74° East 519 597 31,000  Level FlightAware ADS-B
Sun 01:26:16 AM 44.6090 -58.2920 74° East 518 596 31,000  Level FlightAware ADS-B
Sun 01:26:58 AM 44.6350 -58.1560 75° East 518 596 31,000  Level FlightAware ADS-B
Sun 01:27:42 AM 44.6640 -58.0100 74° East 519 597 31,000  Level FlightAware ADS-B
Sun 01:28:20 AM 44.6860 -57.8950 75° East 519 597 31,000  Level FlightAware ADS-B
Sun 01:28:58 AM 44.7110 -57.7690 74° East 518 596 31,000  Level FlightAware ADS-B
Sun 01:30:00 AM 44.7500 -57.5610 75° East 518 596 31,000  Level FlightAware ADS-B
Sun 01:30:42 AM 44.7770 -57.4230 75° East 519 597 31,000  Level FlightAware ADS-B
Sun 01:31:41 AM 44.8090 -57.2520 75° East 520 598 31,000  Level FlightAware ADS-B
Sun 01:32:18 AM 44.8350 -57.1110 75° East 522 601 31,000  Level FlightAware ADS-B
Sun 01:33:02 AM 44.8610 -56.9700 75° East 522 601 31,000  Level FlightAware ADS-B
Sun 01:33:42 AM 44.8830 -56.8580 74° East 522 601 31,000  Level FlightAware ADS-B
Sun 01:34:43 AM 44.9190 -56.6590 76° East 522 601 31,000  Level FlightAware ADS-B
Sun 01:35:19 AM 44.9380 -56.5580 75° East 522 601 31,000  Level FlightAware ADS-B
Sun 01:36:07 AM 44.9640 -56.4230 75° East 522 601 31,000  Level FlightAware ADS-B
Sun 01:36:44 AM 44.9840 -56.3200 75° East 522 601 31,000  Level FlightAware ADS-B
Sun 01:37:31 AM 45.0080 -56.1880 76° East 522 601 31,000  Level FlightAware ADS-B
Sun 01:38:09 AM 45.0290 -56.0810 74° East 522 601 31,000  Level FlightAware ADS-B
Sun 01:38:57 AM 45.0540 -55.9470 75° East 522 601 31,000  Level FlightAware ADS-B
Sun 01:39:34 AM 45.0740 -55.8430 75° East 522 601 31,000  Level FlightAware ADS-B
Sun 01:40:11 AM 45.0930 -55.7390 75° East 522 601 31,000  Level FlightAware ADS-B
Sun 01:40:59 AM 45.1190 -55.6040 75° East 522 601 31,000  Level FlightAware ADS-B
Sun 01:41:35 AM 45.1380 -55.5030 75° East 522 601 31,000  Level FlightAware ADS-B
Sun 01:42:21 AM 45.1620 -55.3730 75° East 522 601 31,000 2,022 Level FlightAware ADS-B
Sun 01:43:04 AM 45.2260 -54.9960 76° East 515 593 34,000 2,195 Climbing FlightAware ADS-B
Sun 01:43:43 AM 45.2470 -54.8870 75° East 515 593 34,000  Level FlightAware ADS-B
Sun 01:44:31 AM 45.2720 -54.7530 75° East 515 593 34,000  Level FlightAware ADS-B
Sun 01:45:07 AM 45.2910 -54.6530 75° East 515 593 34,000  Level FlightAware ADS-B
Sun 01:45:53 AM 45.3220 -54.4420 78° East 522 601 34,000  Level FlightAware ADS-B
Sun 01:46:36 AM 45.3480 -54.2940 76° East 523 602 34,000  Level FlightAware ADS-B
Sun 01:47:17 AM 45.3700 -54.1600 77° East 524 603 34,000  Level FlightAware ADS-B
Sun 01:48:02 AM 45.3930 -54.0340 75° East 524 603 34,000  Level FlightAware ADS-B
Sun 01:48:38 AM 45.4100 -53.9310 77° East 524 603 34,000  Level FlightAware ADS-B
Sun 01:49:26 AM 45.4340 -53.7940 76° East 524 603 34,000  Level FlightAware ADS-B
Sun 01:50:02 AM 45.4520 -53.6920 76° East 524 603 34,000  Level FlightAware ADS-B
Sun 01:50:39 AM 45.4710 -53.5860 76° East 524 603 34,000  Level FlightAware ADS-B
Sun 01:51:27 AM 45.4950 -53.4490 76° East 524 603 34,000  Level FlightAware ADS-B
Sun 01:52:27 AM 45.5250 -53.2780 76° East 524 603 34,000  Level FlightAware ADS-B
Sun 01:53:01 AM 45.5410 -53.1810 77° East 524 603 34,000  Level FlightAware ADS-B
Sun 01:53:51 AM 45.5660 -53.0380 76° East 524 603 34,000  Level FlightAware ADS-B
Sun 01:54:27 AM 45.5840 -52.9350 76° East 524 603 34,000  Level FlightAware ADS-B
Sun 01:55:15 AM 45.6080 -52.7980 76° East 524 603 34,000  Level FlightAware ADS-B
Sun 01:55:53 AM 45.6270 -52.6900 76° East 524 603 34,000  Level FlightAware ADS-B
Sun 01:56:30 AM 45.6460 -52.5840 76° East 524 603 34,000  Level FlightAware ADS-B
Sun 01:57:18 AM 45.6690 -52.4460 77° East 524 603 34,000  Level FlightAware ADS-B
Sun 01:58:14 AM 45.7167 -51.8500 77° East 530 610 34,000  Level Gander Center
Sun 01:59:14 AM 45.7500 -51.6500 76° East 530 610 34,000  Level Gander Center
Sun 02:00:14 AM 45.7667 -51.4667 83° East 530 610 34,000  Level Gander Center
Sun 02:01:14 AM 45.8000 -51.2333 78° East 530 610 34,000  Level Gander Center
Sun 02:02:14 AM 45.8333 -51.0333 76° East 520 598 34,000  Level Gander Center
Sun 02:03:14 AM 45.8667 -50.8167 77° East 530 610 34,000  Level Gander Center
Sun 02:04:14 AM 45.8833 -50.6167 83° East 530 610 34,000  Level Gander Center
Sun 02:05:14 AM 45.9167 -50.4167 76° East 520 598 34,000  Level Gander Center
Sun 02:06:14 AM 45.9500 -50.2167 76° East 530 610 34,000  Level Gander Center
Sun 02:07:14 AM 45.9667 -50.0167 83° East 530 610 34,000  Level Gander Center
Sun 02:08:14 AM 46.0333 -49.8167 64° Northeast 520 598 34,000  Level Gander Center
Sun 02:09:14 AM 46.1000 -49.6333 62° Northeast 520 598 34,000  Level Gander Center
Sun 02:10:14 AM 46.1500 -49.4500 68° East 520 598 34,000  Level Gander Center
Sun 02:11:14 AM 46.2167 -49.2667 62° Northeast 520 598 34,000  Level Gander Center
Sun 02:12:14 AM 46.2833 -49.0833 62° Northeast 520 598 34,000  Level Gander Center
Sun 02:12:25 AM 46.0000 -50.0000 62° Northeast 531 611 34,000  Level ETMS Enhanced Traffic Management System
Sun 02:13:14 AM 46.3500 -48.9000 62° Northeast 520 598 34,000  Level Gander Center
Sun 02:15:00 AM 46.4740 -48.5607 62° Northeast  Level FlightAware Approximate
Sun 02:22:00 AM 46.9496 -47.1967 64° Northeast  Level FlightAware Approximate
Sun 02:23:00 AM 47.0141 -46.9985 64° Northeast  Level FlightAware Approximate
Sun 02:24:00 AM 47.0784 -46.7998 65° Northeast  Level FlightAware Approximate
Sun 02:25:00 AM 47.1423 -46.6006 65° Northeast  Level FlightAware Approximate
Sun 02:26:00 AM 47.2058 -46.4010 65° Northeast  Level FlightAware Approximate
Sun 02:27:00 AM 47.2692 -46.2010 65° Northeast  Level FlightAware Approximate
Sun 02:28:00 AM 47.3323 -46.0006 65° Northeast  Level FlightAware Approximate
Sun 02:29:00 AM 47.3951 -45.7997 65° Northeast  Level FlightAware Approximate
Sun 02:30:00 AM 47.4575 -45.5983 65° Northeast  Level FlightAware Approximate
Sun 02:31:00 AM 47.5196 -45.3965 65° Northeast  Level FlightAware Approximate
Sun 02:32:00 AM 47.5813 -45.1942 66° East  Level FlightAware Approximate
Sun 02:33:00 AM 47.6427 -44.9914 66° East  Level FlightAware Approximate
Sun 02:34:00 AM 47.7037 -44.7881 66° East  Level FlightAware Approximate
Sun 02:35:00 AM 47.7643 -44.5843 66° East  Level FlightAware Approximate
Sun 02:36:00 AM 47.8246 -44.3801 66° East  Level FlightAware Approximate
Sun 02:37:00 AM 47.8845 -44.1754 66° East  Level FlightAware Approximate
Sun 02:38:00 AM 47.9440 -43.9702 67° East  Level FlightAware Approximate
Sun 02:39:00 AM 48.0032 -43.7646 67° East  Level FlightAware Approximate
Sun 02:40:00 AM 48.0620 -43.5585 67° East  Level FlightAware Approximate
Sun 02:41:00 AM 48.1205 -43.3519 67° East  Level FlightAware Approximate
Sun 02:42:00 AM 48.1785 -43.1449 67° East  Level FlightAware Approximate
Sun 02:43:00 AM 48.2362 -42.9374 67° East  Level FlightAware Approximate
Sun 02:44:00 AM 48.2936 -42.7294 67° East  Level FlightAware Approximate
Sun 02:45:00 AM 48.3505 -42.5209 68° East  Level FlightAware Approximate
Sun 02:46:00 AM 48.4071 -42.3120 68° East  Level FlightAware Approximate
Sun 02:47:00 AM 48.4633 -42.1026 68° East  Level FlightAware Approximate
Sun 02:48:00 AM 48.5191 -41.8928 68° East  Level FlightAware Approximate
Sun 02:49:00 AM 48.5745 -41.6825 68° East  Level FlightAware Approximate
Sun 02:50:00 AM 48.6296 -41.4717 68° East  Level FlightAware Approximate
Sun 02:51:00 AM 48.6842 -41.2605 69° East  Level FlightAware Approximate
Sun 02:52:00 AM 48.7385 -41.0488 69° East  Level FlightAware Approximate
Sun 02:53:00 AM 48.7924 -40.8367 69° East  Level FlightAware Approximate
Sun 02:54:00 AM 48.8459 -40.6241 69° East  Level FlightAware Approximate
Sun 02:55:00 AM 48.8990 -40.4110 69° East  Level FlightAware Approximate
Sun 02:56:00 AM 48.9517 -40.1975 69° East  Level FlightAware Approximate
Sun 02:57:00 AM 49.0041 -39.9836 69° East  Level FlightAware Approximate
Sun 02:58:00 AM 49.0578 -39.7702 69° East  Level FlightAware Approximate
Sun 02:59:00 AM 49.1111 -39.5564 69° East  Level FlightAware Approximate
Sun 03:00:00 AM 49.1639 -39.3421 69° East  Level FlightAware Approximate
Sun 03:00:00 AM 49.0000 -40.0000 69° East 550 633 34,000  Level ETMS Enhanced Traffic Management System
Sun 03:01:00 AM 49.2164 -39.1273 69° East  Level FlightAware Approximate
Sun 03:02:00 AM 49.2685 -38.9121 70° East  Level FlightAware Approximate
Sun 03:03:00 AM 49.3201 -38.6964 70° East  Level FlightAware Approximate
Sun 03:04:00 AM 49.3714 -38.4803 70° East  Level FlightAware Approximate
Sun 03:05:00 AM 49.4223 -38.2637 70° East  Level FlightAware Approximate
Sun 03:06:00 AM 49.4265 -38.2456 70° East 550 633 34,000  Level FlightAware Transoceanic
Sun 03:07:00 AM 49.4780 -38.0241 70° East 550 633 34,000  Level FlightAware Transoceanic
Sun 03:08:00 AM 49.5290 -37.8022 71° East 550 633 34,000  Level FlightAware Transoceanic
Sun 03:09:00 AM 49.5796 -37.5799 71° East 550 633 34,000  Level FlightAware Transoceanic
Sun 03:10:00 AM 49.6297 -37.3571 71° East 550 633 34,000  Level FlightAware Transoceanic
Sun 03:11:00 AM 49.6795 -37.1338 71° East 550 633 34,000  Level FlightAware Transoceanic
Sun 03:12:00 AM 49.7287 -36.9101 71° East 550 633 34,000  Level FlightAware Transoceanic
Sun 03:13:00 AM 49.7776 -36.6860 71° East 550 633 34,000  Level FlightAware Transoceanic
Sun 03:14:00 AM 49.8260 -36.4613 72° East 550 633 34,000  Level FlightAware Transoceanic
Sun 03:15:00 AM 49.8741 -36.2363 72° East 550 633 34,000  Level FlightAware Transoceanic
Sun 03:16:00 AM 49.9216 -36.0107 72° East 550 633 34,000  Level FlightAware Transoceanic
Sun 03:17:00 AM 49.9688 -35.7848 72° East 550 633 34,000  Level FlightAware Transoceanic
Sun 03:18:00 AM 50.0154 -35.5584 72° East 550 633 34,000  Level FlightAware Transoceanic
Sun 03:19:00 AM 50.0617 -35.3316 72° East 550 633 34,000  Level FlightAware Transoceanic
Sun 03:20:00 AM 50.1075 -35.1043 73° East 550 633 34,000  Level FlightAware Transoceanic
Sun 03:21:00 AM 50.1528 -34.8766 73° East 550 633 34,000  Level FlightAware Transoceanic
Sun 03:22:00 AM 50.1978 -34.6484 73° East 550 633 34,000  Level FlightAware Transoceanic
Sun 03:23:00 AM 50.2422 -34.4199 73° East 550 633 34,000  Level FlightAware Transoceanic
Sun 03:24:00 AM 50.2862 -34.1909 73° East 550 633 34,000  Level FlightAware Transoceanic
Sun 03:25:00 AM 50.3298 -33.9615 74° East 550 633 34,000  Level FlightAware Transoceanic
Sun 03:26:00 AM 50.3729 -33.7316 74° East 550 633 34,000  Level FlightAware Transoceanic
Sun 03:27:00 AM 50.4156 -33.5014 74° East 550 633 34,000  Level FlightAware Transoceanic
Sun 03:28:00 AM 50.4578 -33.2707 74° East 550 633 34,000  Level FlightAware Transoceanic
Sun 03:29:00 AM 50.4995 -33.0397 74° East 550 633 34,000  Level FlightAware Transoceanic
Sun 03:30:00 AM 50.5408 -32.8082 74° East 550 633 34,000  Level FlightAware Transoceanic
Sun 03:31:00 AM 50.5816 -32.5763 75° East 550 633 34,000  Level FlightAware Transoceanic
Sun 03:32:00 AM 50.6220 -32.3440 75° East 550 633 34,000  Level FlightAware Transoceanic
Sun 03:33:00 AM 50.6619 -32.1114 75° East 550 633 34,000  Level FlightAware Transoceanic
Sun 03:34:00 AM 50.7014 -31.8783 75° East 550 633 34,000  Level FlightAware Transoceanic
Sun 03:35:00 AM 50.7403 -31.6448 75° East 550 633 34,000  Level FlightAware Transoceanic
Sun 03:36:00 AM 50.7788 -31.4110 75° East 550 633 34,000  Level FlightAware Transoceanic
Sun 03:37:00 AM 50.8169 -31.1768 76° East 550 633 34,000  Level FlightAware Transoceanic
Sun 03:38:00 AM 50.8544 -30.9422 76° East 550 633 34,000  Level FlightAware Transoceanic
Sun 03:39:00 AM 50.8915 -30.7072 76° East 550 633 34,000  Level FlightAware Transoceanic
Sun 03:40:00 AM 50.9282 -30.4718 76° East 550 633 34,000  Level FlightAware Transoceanic
Sun 03:41:00 AM 50.9643 -30.2361 76° East 550 633 34,000  Level FlightAware Transoceanic
Sun 03:42:00 AM 50.9982 -30.0121 76° East  Level FlightAware Approximate
Sun 03:43:00 AM 51.0316 -29.7878 77° East  Level FlightAware Approximate
Sun 03:43:00 AM 51.0000 -30.0000 86° East 552 635 34,000  Level ETMS Enhanced Traffic Management System
Sun 03:44:00 AM 51.0086 -29.7950 86° East  Level FlightAware Approximate
Sun 03:45:00 AM 51.0178 -29.5649 86° East  Level FlightAware Approximate
Sun 03:46:00 AM 51.0265 -29.3348 86° East  Level FlightAware Approximate
Sun 03:47:00 AM 51.0348 -29.1050 87° East  Level FlightAware Approximate
Sun 03:48:00 AM 51.0426 -28.8752 87° East  Level FlightAware Approximate
Sun 03:49:00 AM 51.0500 -28.6452 87° East  Level FlightAware Approximate
Sun 03:50:00 AM 51.0732 -27.8078 88° East 552 635 34,000  Level FlightAware Transoceanic
Sun 03:51:00 AM 51.0788 -27.5639 88° East 552 635 34,000  Level FlightAware Transoceanic
Sun 03:52:00 AM 51.0838 -27.3199 88° East 552 635 34,000  Level FlightAware Transoceanic
Sun 03:53:00 AM 51.0884 -27.0758 88° East 552 635 34,000  Level FlightAware Transoceanic
Sun 03:54:00 AM 51.0925 -26.8317 89° East 552 635 34,000  Level FlightAware Transoceanic
Sun 03:55:00 AM 51.0960 -26.5876 89° East 552 635 34,000  Level FlightAware Transoceanic
Sun 03:56:00 AM 51.0991 -26.3434 89° East 552 635 34,000  Level FlightAware Transoceanic
Sun 03:57:00 AM 51.1016 -26.0992 89° East 552 635 34,000  Level FlightAware Transoceanic
Sun 03:58:00 AM 51.1037 -25.8549 89° East 552 635 34,000  Level FlightAware Transoceanic
Sun 03:59:00 AM 51.1052 -25.6107 90° East 552 635 34,000  Level FlightAware Transoceanic
Sun 04:00:00 AM 51.1062 -25.3664 90° East 552 635 34,000  Level FlightAware Transoceanic
Sun 04:01:00 AM 51.1067 -25.1221 90° East 552 635 34,000  Level FlightAware Transoceanic
Sun 04:02:00 AM 51.1067 -24.8779 90° East 552 635 34,000  Level FlightAware Transoceanic
Sun 04:03:00 AM 51.1062 -24.6336 90° East 552 635 34,000  Level FlightAware Transoceanic
Sun 04:04:00 AM 51.1052 -24.3893 90° East 552 635 34,000  Level FlightAware Transoceanic
Sun 04:05:00 AM 51.1037 -24.1451 91° East 552 635 34,000  Level FlightAware Transoceanic
Sun 04:06:00 AM 51.1016 -23.9008 91° East 552 635 34,000  Level FlightAware Transoceanic
Sun 04:07:00 AM 51.0991 -23.6566 91° East 552 635 34,000  Level FlightAware Transoceanic
Sun 04:08:00 AM 51.0960 -23.4124 91° East 552 635 34,000  Level FlightAware Transoceanic
Sun 04:09:00 AM 51.0925 -23.1683 91° East 552 635 34,000  Level FlightAware Transoceanic
Sun 04:10:00 AM 51.0884 -22.9242 92° East 552 635 34,000  Level FlightAware Transoceanic
Sun 04:11:00 AM 51.0838 -22.6801 92° East 552 635 34,000  Level FlightAware Transoceanic
Sun 04:12:00 AM 51.0788 -22.4361 92° East 552 635 34,000  Level FlightAware Transoceanic
Sun 04:13:00 AM 51.0732 -22.1922 92° East 552 635 34,000  Level FlightAware Transoceanic
Sun 04:14:00 AM 51.0671 -21.9483 92° East 552 635 34,000  Level FlightAware Transoceanic
Sun 04:15:00 AM 51.0604 -21.7045 93° East 552 635 34,000  Level FlightAware Transoceanic
Sun 04:16:00 AM 51.0533 -21.4607 93° East 552 635 34,000  Level FlightAware Transoceanic
Sun 04:17:00 AM 51.0457 -21.2170 93° East 552 635 34,000  Level FlightAware Transoceanic
Sun 04:18:00 AM 51.0376 -20.9734 93° East 552 635 34,000  Level FlightAware Transoceanic
Sun 04:19:00 AM 51.0289 -20.7299 93° East 552 635 34,000  Level FlightAware Transoceanic
Sun 04:20:00 AM 51.0198 -20.4865 94° East 552 635 34,000  Level FlightAware Transoceanic
Sun 04:21:00 AM 51.0102 -20.2432 94° East 552 635 34,000 26 Level FlightAware Transoceanic
Sun 04:22:00 AM 51.0006 -20.0137 94° East  Level FlightAware Approximate
Sun 04:23:00 AM 50.9906 -19.7842 94° East  Level FlightAware Approximate
Sun 04:24:00 AM 50.9778 -19.8005 100° East  Level FlightAware Approximate
Sun 04:25:00 AM 50.9522 -19.5743 100° East  Level FlightAware Approximate
Sun 04:26:00 AM 50.9262 -19.3483 100° East  Level FlightAware Approximate
Sun 04:27:00 AM 50.8997 -19.1226 100° East  Level FlightAware Approximate
Sun 04:28:00 AM 50.8729 -18.8971 101° East  Level FlightAware Approximate
Sun 04:29:00 AM 50.8455 -18.6719 101° East  Level FlightAware Approximate
Sun 04:30:00 AM 50.8178 -18.4470 101° East  Level FlightAware Approximate
Sun 04:31:00 AM 50.7896 -18.2223 101° East  Level FlightAware Approximate
Sun 04:32:00 AM 50.7610 -17.9979 101° East  Level FlightAware Approximate
Sun 04:33:00 AM 50.7319 -17.7738 101° East  Level FlightAware Approximate
Sun 04:34:00 AM 50.7024 -17.5500 102° East  Level FlightAware Approximate
Sun 04:35:00 AM 50.6725 -17.3265 102° East  Level FlightAware Approximate
Sun 04:36:00 AM 50.6422 -17.1032 102° East  Level FlightAware Approximate
Sun 04:37:00 AM 50.6114 -16.8802 102° East  Level FlightAware Approximate
Sun 04:38:00 AM 50.5802 -16.6576 102° East  Level FlightAware Approximate
Sun 04:39:00 AM 50.5486 -16.4352 103° East  Level FlightAware Approximate
Sun 04:40:00 AM 50.5166 -16.2131 103° East  Level FlightAware Approximate
Sun 04:41:00 AM 50.4841 -15.9913 103° East  Level FlightAware Approximate
Sun 04:42:00 AM 50.4512 -15.7698 103° East  Level FlightAware Approximate
Sun 04:43:00 AM 50.4179 -15.5487 103° East  Level FlightAware Approximate
Sun 04:44:00 AM 50.3842 -15.3278 103° East  Level FlightAware Approximate
Sun 04:45:00 AM 50.3501 -15.1073 104° East  Level FlightAware Approximate
Sun 04:46:00 AM 50.3154 -14.8871 104° East  Level FlightAware Approximate
Sun 04:47:00 AM 50.2802 -14.6673 104° East  Level FlightAware Approximate
Sun 04:48:00 AM 50.2446 -14.4479 104° East  Level FlightAware Approximate
Sun 04:49:00 AM 50.2085 -14.2287 104° East  Level FlightAware Approximate
Sun 04:50:00 AM 50.1721 -14.0099 105° East  Level FlightAware Approximate
Sun 04:51:00 AM 50.1352 -13.7914 105° East  Level FlightAware Approximate
Sun 04:52:00 AM 50.0980 -13.5733 105° East  Level FlightAware Approximate
Sun 04:53:00 AM 50.0603 -13.3555 105° East  Level FlightAware Approximate
Sun 04:54:00 AM 50.0222 -13.1381 105° East  Level FlightAware Approximate
Sun 04:55:00 AM 49.9837 -12.9210 105° East  Level FlightAware Approximate
Sun 04:56:00 AM 49.9448 -12.7042 106° East  Level FlightAware Approximate
Sun 04:57:00 AM 49.9055 -12.4878 106° East  Level FlightAware Approximate
Sun 04:58:00 AM 49.8657 -12.2718 106° East  Level FlightAware Approximate
Sun 04:58:28 AM 50.2810 -11.0690 106° East 575 662 35,000  Level FlightAware ADS-B
Sun 04:59:00 AM 49.8253 -12.0562 106° East  Level FlightAware Approximate
Sun 04:59:12 AM 50.2400 -10.9010 111° Southeast 574 661 35,000  Level FlightAware ADS-B
Sun 04:59:52 AM 50.2010 -10.7430 111° Southeast 573 659 35,000  Level FlightAware ADS-B
Sun 05:00:26 AM 50.1720 -10.6210 110° East 574 661 35,000  Level FlightAware ADS-B
Sun 05:01:15 AM 50.1240 -10.4280 111° Southeast 575 662 35,000  Level FlightAware ADS-B
Sun 05:01:55 AM 50.0850 -10.2700 111° Southeast 576 663 35,000  Level FlightAware ADS-B
Sun 05:02:38 AM 50.0430 -10.1050 112° Southeast 578 665 35,000  Level FlightAware ADS-B
Sun 05:03:18 AM 50.0050 -9.9510 111° Southeast 577 664 35,000  Level FlightAware ADS-B
Sun 05:04:02 AM 49.9620 -9.7830 112° Southeast 577 664 35,000  Level FlightAware ADS-B
Sun 05:04:46 AM 49.9180 -9.6100 111° Southeast 576 663 35,000  Level FlightAware ADS-B
Sun 05:05:24 AM 49.8820 -9.4690 112° Southeast 575 662 35,000  Level FlightAware ADS-B
Sun 05:06:12 AM 49.8330 -9.2810 112° Southeast 573 659 35,000  Level FlightAware ADS-B
Sun 05:06:52 AM 49.7940 -9.1320 112° Southeast 572 658 35,000  Level FlightAware ADS-B
Sun 05:07:34 AM 49.7510 -8.9700 112° Southeast 571 657 35,000  Level FlightAware ADS-B
Sun 05:08:14 AM 49.6920 -8.7744 112° Southeast 502 578 35,000  Level FlightAware UK
Sun 05:08:16 AM 49.7100 -8.8130 112° Southeast 568 654 35,000  Level FlightAware ADS-B
Sun 05:08:57 AM 49.6690 -8.6610 113° Southeast 565 650 35,000  Level FlightAware ADS-B
Sun 05:09:36 AM 49.6340 -8.5310 113° Southeast 564 649 35,000  Level FlightAware ADS-B
Sun 05:10:14 AM 49.5716 -8.3278 113° Southeast 500 575 35,000  Level FlightAware UK
Sun 05:10:24 AM 49.5910 -8.3720 113° Southeast 565 650 35,000  Level FlightAware ADS-B
Sun 05:11:00 AM 49.5460 -8.2060 113° Southeast 564 649 35,000  Level FlightAware ADS-B
Sun 05:11:44 AM 49.4806 -7.9948 113° Southeast 502 578 35,000  Level FlightAware UK
Sun 05:11:48 AM 49.4960 -8.0260 113° Southeast 564 649 35,000  Level FlightAware ADS-B
Sun 05:12:26 AM 49.4540 -7.8920 116° Southeast 561 646 35,000  Level FlightAware ADS-B
Sun 05:13:10 AM 49.4030 -7.7340 116° Southeast 556 640 35,000  Level FlightAware ADS-B
Sun 05:13:51 AM 49.3580 -7.5920 116° Southeast 553 636 35,000  Level FlightAware ADS-B
Sun 05:14:33 AM 49.3100 -7.4410 116° Southeast 553 636 35,000  Level FlightAware ADS-B
Sun 05:15:18 AM 49.2590 -7.2820 116° Southeast 554 638 35,000  Level FlightAware ADS-B
Sun 05:15:55 AM 49.2190 -7.1550 116° Southeast 557 641 35,000  Level FlightAware ADS-B
Sun 05:16:38 AM 49.1690 -6.9990 116° Southeast 558 642 35,000  Level FlightAware ADS-B
Sun 05:17:21 AM 49.1210 -6.8500 116° Southeast 557 641 35,000  Level FlightAware ADS-B
Sun 05:18:02 AM 49.0740 -6.7070 117° Southeast 555 639 35,000  Level FlightAware ADS-B
Sun 05:18:43 AM 49.0310 -6.5730 116° Southeast 555 639 35,000  Level FlightAware ADS-B
Sun 05:19:24 AM 48.9790 -6.4170 117° Southeast 556 640 35,000  Level FlightAware ADS-B
Sun 05:20:09 AM 48.9077 -6.2227 117° Southeast 502 578 35,000  Level FlightAware UK
Sun 05:20:10 AM 48.9260 -6.2550 117° Southeast 556 640 35,000  Level FlightAware ADS-B
Sun 05:20:50 AM 48.8790 -6.1150 117° Southeast 555 639 35,000  Level FlightAware ADS-B
Sun 05:21:35 AM 48.8280 -5.9630 117° Southeast 554 638 35,000  Level FlightAware ADS-B
Sun 05:22:09 AM 48.7676 -5.8069 117° Southeast 502 578 35,000  Level FlightAware UK
Sun 05:22:14 AM 48.7820 -5.8260 117° Southeast 554 638 35,000  Level FlightAware ADS-B
Sun 05:22:58 AM 48.7310 -5.6770 117° Southeast 553 636 35,000  Level FlightAware ADS-B
Sun 05:23:36 AM 48.6870 -5.5480 117° Southeast 552 635 35,000  Level FlightAware ADS-B
Sun 05:23:39 AM 48.6619 -5.4978 117° Southeast 502 578 35,000  Level FlightAware UK
Sun 05:24:09 AM 48.6270 -5.3955 117° Southeast 500 575 35,000  Level FlightAware UK
Sun 05:24:19 AM 48.6350 -5.3950 117° Southeast 551 634 35,000  Level FlightAware ADS-B
Sun 05:25:03 AM 48.5840 -5.2470 117° Southeast 551 634 35,000  Level FlightAware ADS-B
Sun 05:25:45 AM 48.5141 -5.0699 117° Southeast 500 575 35,000  Level FlightAware UK
Sun 05:25:47 AM 48.5310 -5.0950 117° Southeast 552 635 35,000  Level FlightAware ADS-B
Sun 05:26:27 AM 48.4840 -4.9590 117° Southeast 552 635 35,000  Level FlightAware ADS-B
Sun 05:27:11 AM 48.4310 -4.8090 118° Southeast 552 635 35,000  Level FlightAware ADS-B
Sun 05:27:51 AM 48.3850 -4.6760 117° Southeast 551 634 35,000  Level FlightAware ADS-B
Sun 05:28:35 AM 48.3320 -4.5270 118° Southeast 550 633 35,000  Level FlightAware ADS-B
Sun 05:29:15 AM 48.2840 -4.3920 118° Southeast 549 632 35,000  Level FlightAware ADS-B
Sun 05:29:57 AM 48.2320 -4.2490 119° Southeast 549 632 35,000  Level FlightAware ADS-B
Sun 05:30:39 AM 48.1820 -4.1080 118° Southeast 549 632 35,000  Level FlightAware ADS-B
Sun 05:31:23 AM 48.1280 -3.9600 119° Southeast 550 633 35,000  Level FlightAware ADS-B
Sun 05:32:03 AM 48.0800 -3.8290 119° Southeast 550 633 35,000  Level FlightAware ADS-B
Sun 05:32:47 AM 48.0260 -3.6820 119° Southeast 550 633 35,000  Level FlightAware ADS-B
Sun 05:33:27 AM 47.9710 -3.5510 122° Southeast 550 633 35,000  Level FlightAware ADS-B
Sun 05:34:07 AM 47.9170 -3.4300 124° Southeast 550 633 35,000  Level FlightAware ADS-B
Sun 05:34:51 AM 47.8540 -3.2920 124° Southeast 549 632 35,000  Level FlightAware ADS-B
Sun 05:35:35 AM 47.7880 -3.1520 125° Southeast 550 633 35,000  Level FlightAware ADS-B
Sun 05:36:16 AM 47.7290 -3.0280 125° Southeast 551 634 35,000  Level FlightAware ADS-B
Sun 05:36:59 AM 47.6660 -2.8970 125° Southeast 551 634 35,000  Level FlightAware ADS-B
Sun 05:37:39 AM 47.6070 -2.7710 125° Southeast 551 634 35,000  Level FlightAware ADS-B
Sun 05:38:22 AM 47.5430 -2.6390 126° Southeast 552 635 35,000  Level FlightAware ADS-B
Sun 05:39:05 AM 47.4800 -2.5090 126° Southeast 552 635 35,000  Level FlightAware ADS-B
Sun 05:39:47 AM 47.4170 -2.3780 125° Southeast 552 635 35,000  Level FlightAware ADS-B
Sun 05:40:27 AM 47.3570 -2.2540 126° Southeast 552 635 35,000  Level FlightAware ADS-B
Sun 05:41:11 AM 47.2940 -2.1250 126° Southeast 553 636 35,000  Level FlightAware ADS-B
Sun 05:41:51 AM 47.2310 -1.9980 126° Southeast 552 635 35,000  Level FlightAware ADS-B
Sun 05:42:29 AM 47.1770 -1.8880 126° Southeast 553 636 35,000  Level FlightAware ADS-B
Sun 05:43:17 AM 47.1020 -1.7380 126° Southeast 553 636 35,000  Level FlightAware ADS-B
Sun 05:43:58 AM 47.0420 -1.6160 126° Southeast 554 638 35,000  Level FlightAware ADS-B
Sun 05:44:32 AM 46.9910 -1.5150 126° Southeast 553 636 35,000  Level FlightAware ADS-B
Sun 05:45:23 AM 46.9140 -1.3550 125° Southeast 554 638 35,000  Level FlightAware ADS-B
Sun 05:46:03 AM 46.8650 -1.2200 118° Southeast 557 641 35,000  Level FlightAware ADS-B
Sun 05:46:43 AM 46.8260 -1.0830 113° Southeast 557 641 35,000  Level FlightAware ADS-B
Sun 05:47:29 AM 46.7810 -0.9270 113° Southeast 558 642 35,000  Level FlightAware ADS-B
Sun 05:48:09 AM 46.7410 -0.7880 113° Southeast 558 642 35,000  Level FlightAware ADS-B
Sun 05:49:19 AM 46.6760 -0.5620 113° Southeast 559 643 35,000  Level FlightAware ADS-B
Sun 05:49:59 AM 46.6340 -0.4160 113° Southeast 559 643 35,000  Level FlightAware ADS-B
Sun 05:50:40 AM 46.5930 -0.2780 113° Southeast 560 644 35,000  Level FlightAware ADS-B
Sun 05:51:09 AM 46.5620 -0.1730 113° Southeast 559 643 35,000  Level FlightAware ADS-B
Sun 05:51:54 AM 46.5150 -0.0120 113° Southeast 559 643 35,000  Level FlightAware ADS-B
Sun 05:52:34 AM 46.4740 0.1230 114° Southeast 560 644 35,000  Level FlightAware ADS-B
Sun 05:53:14 AM 46.4320 0.2620 114° Southeast 561 646 35,000  Level FlightAware ADS-B
Sun 05:53:59 AM 46.3860 0.4120 114° Southeast 560 644 35,000  Level FlightAware ADS-B
Sun 05:54:39 AM 46.3450 0.5420 115° Southeast 559 643 35,000  Level FlightAware ADS-B
Sun 05:55:24 AM 46.2940 0.7030 115° Southeast 559 643 35,000  Level FlightAware ADS-B
Sun 05:56:04 AM 46.2530 0.8330 114° Southeast 558 642 35,000  Level FlightAware ADS-B
Sun 05:56:49 AM 46.2040 0.9880 115° Southeast 558 642 35,000  Level FlightAware ADS-B
Sun 05:57:29 AM 46.1640 1.1150 114° Southeast 558 642 35,000  Level FlightAware ADS-B
Sun 05:58:24 AM 46.1000 1.3130 115° Southeast 560 644 35,000  Level FlightAware ADS-B
Sun 05:59:17 AM 46.0460 1.4810 115° Southeast 559 643 35,000  Level FlightAware ADS-B
Sun 06:00:14 AM 45.9800 1.6850 115° Southeast 562 647 35,000  Level FlightAware ADS-B
Sun 06:01:01 AM 45.9260 1.8480 115° Southeast 564 649 35,000  Level FlightAware ADS-B
Sun 06:01:37 AM 45.8860 1.9690 115° Southeast 566 651 35,000  Level FlightAware ADS-B
Sun 06:02:21 AM 45.8360 2.1200 115° Southeast 565 650 35,000  Level FlightAware ADS-B
Sun 06:03:05 AM 45.7880 2.2650 115° Southeast 562 647 35,000  Level FlightAware ADS-B
Sun 06:03:49 AM 45.7380 2.4150 115° Southeast 562 647 35,000  Level FlightAware ADS-B
Sun 06:04:31 AM 45.6910 2.5530 116° Southeast 563 648 35,000  Level FlightAware ADS-B
Sun 06:05:21 AM 45.6360 2.7170 116° Southeast 564 649 35,000  Level FlightAware ADS-B
Sun 06:06:02 AM 45.5880 2.8560 116° Southeast 565 650 35,000  Level FlightAware ADS-B
Sun 06:06:44 AM 45.5400 2.9970 116° Southeast 568 654 35,000  Level FlightAware ADS-B
Sun 06:07:29 AM 45.4890 3.1440 116° Southeast 565 650 35,000  Level FlightAware ADS-B
Sun 06:08:09 AM 45.4470 3.2670 116° Southeast 566 651 35,000  Level FlightAware ADS-B
Sun 06:08:58 AM 45.3990 3.4030 117° Southeast 566 651 35,000  Level FlightAware ADS-B
Sun 06:09:38 AM 45.3380 3.5790 116° Southeast 566 651 35,000  Level FlightAware ADS-B
Sun 06:10:35 AM 45.2770 3.7760 114° Southeast 572 658 35,000  Level FlightAware ADS-B
Sun 06:11:32 AM 45.2360 3.9700 107° East 567 652 35,000  Level FlightAware ADS-B
Sun 06:12:33 AM 45.1720 4.1510 117° Southeast 554 638 35,000  Level FlightAware ADS-B
Sun 06:13:22 AM 45.1030 4.2960 124° Southeast 552 635 35,000  Level FlightAware ADS-B
Sun 06:13:59 AM 45.0480 4.4070 125° Southeast 548 631 35,000  Level FlightAware ADS-B
Sun 06:14:43 AM 44.9870 4.5210 127° Southeast 544 626 35,000  Level FlightAware ADS-B
Sun 06:15:33 AM 44.9020 4.6800 127° Southeast 543 625 35,000  Level FlightAware ADS-B
Sun 06:16:13 AM 44.8440 4.7890 127° Southeast 542 624 35,000  Level FlightAware ADS-B
Sun 06:17:01 AM 44.7760 4.9220 126° Southeast 540 621 35,000  Level FlightAware ADS-B
Sun 06:17:43 AM 44.7120 5.0520 125° Southeast 537 618 35,000  Level FlightAware ADS-B
Sun 06:18:25 AM 44.6580 5.1630 124° Southeast 535 616 35,000  Level FlightAware ADS-B
Sun 06:19:02 AM 44.6010 5.2790 125° Southeast 534 615 35,000  Level FlightAware ADS-B
Sun 06:19:46 AM 44.5390 5.4030 125° Southeast 536 617 35,000  Level FlightAware ADS-B
Sun 06:20:56 AM 44.4400 5.5990 125° Southeast 537 618 35,000  Level FlightAware ADS-B
Sun 06:21:41 AM 44.3750 5.7280 125° Southeast 535 616 35,000  Level FlightAware ADS-B
Sun 06:22:07 AM 44.3390 5.8030 124° Southeast 536 617 35,000  Level FlightAware ADS-B
Sun 06:22:50 AM 44.2870 5.9200 122° Southeast 537 618 35,000  Level FlightAware ADS-B
Sun 06:23:26 AM 44.2380 6.0320 121° Southeast 539 620 35,000  Level FlightAware ADS-B
Sun 06:24:13 AM 44.1740 6.1750 122° Southeast 540 621 35,000  Level FlightAware ADS-B
Sun 06:24:52 AM 44.1280 6.2750 123° Southeast 541 623 35,000  Level FlightAware ADS-B
Sun 06:25:41 AM 44.0600 6.4230 123° Southeast 542 624 35,000  Level FlightAware ADS-B
Sun 06:26:21 AM 43.9920 6.5690 123° Southeast 542 624 35,000  Level FlightAware ADS-B
Sun 06:27:02 AM 43.9390 6.6830 123° Southeast 541 623 35,000  Level FlightAware ADS-B
Sun 06:27:41 AM 43.8890 6.7910 123° Southeast 540 621 35,000  Level FlightAware ADS-B
Sun 06:28:21 AM 43.8350 6.9080 123° Southeast 542 624 35,000  Level FlightAware ADS-B
Sun 06:29:07 AM 43.7630 7.0460 126° Southeast 535 616 35,000  Level FlightAware ADS-B
Sun 06:29:51 AM 43.6890 7.1610 132° Southeast 541 623 35,000  Level FlightAware ADS-B
Sun 06:30:30 AM 43.6420 7.2700 121° Southeast 545 627 35,000  Level FlightAware ADS-B
Sun 06:31:14 AM 43.5790 7.4040 123° Southeast 545 627 35,000  Level FlightAware ADS-B
Sun 06:31:58 AM 43.5200 7.5310 123° Southeast 546 628 35,000  Level FlightAware ADS-B
Sun 06:32:40 AM 43.4620 7.6540 123° Southeast 547 629 35,000  Level FlightAware ADS-B
Sun 06:33:20 AM 43.4080 7.7700 123° Southeast 546 628 35,000  Level FlightAware ADS-B
Sun 06:34:00 AM 43.3520 7.8900 123° Southeast 547 629 35,000  Level FlightAware ADS-B
Sun 06:34:32 AM 43.3090 7.9820 123° Southeast 547 629 35,000  Level FlightAware ADS-B
Sun 06:35:14 AM 43.2510 8.1050 123° Southeast 548 631 35,000  Level FlightAware ADS-B
Sun 06:35:46 AM 43.2070 8.1990 123° Southeast 547 629 35,000  Level FlightAware ADS-B
Sun 06:36:28 AM 43.1490 8.3210 123° Southeast 547 629 35,000  Level FlightAware ADS-B
Sun 06:37:26 AM 43.0710 8.4850 123° Southeast 546 628 35,000  Level FlightAware ADS-B
Sun 06:38:07 AM 43.0160 8.6010 123° Southeast 546 628 35,000  Level FlightAware ADS-B
Sun 06:38:49 AM 42.9560 8.7240 124° Southeast 546 628 35,000  Level FlightAware ADS-B
Sun 06:39:33 AM 42.8950 8.8510 123° Southeast 545 627 35,000  Level FlightAware ADS-B
Sun 06:40:13 AM 42.8380 8.9690 123° Southeast 546 628 35,000  Level FlightAware ADS-B
Sun 06:40:59 AM 42.7730 9.1010 124° Southeast 545 627 35,000  Level FlightAware ADS-B
Sun 06:41:36 AM 42.7220 9.2070 123° Southeast 544 626 35,000  Level FlightAware ADS-B
Sun 06:42:04 AM 42.6830 9.2870 124° Southeast 545 627 35,000  Level FlightAware ADS-B
Sun 06:42:49 AM 42.6220 9.4130 123° Southeast 544 626 35,000  Level FlightAware ADS-B
Sun 06:43:30 AM 42.5780 9.5390 115° Southeast 542 624 35,000  Level FlightAware ADS-B
Sun 06:44:03 AM 42.5500 9.6450 110° East 542 624 35,000  Level FlightAware ADS-B
Sun 06:44:37 AM 42.5210 9.7530 110° East 542 624 35,000  Level FlightAware ADS-B
Sun 06:45:17 AM 42.4900 9.8700 110° East 540 621 35,000  Level FlightAware ADS-B
Sun 06:45:57 AM 42.4530 10.0100 110° East 540 621 35,000  Level FlightAware ADS-B
Sun 06:46:37 AM 42.4190 10.1350 110° East 541 623 35,000  Level FlightAware ADS-B
Sun 06:47:20 AM 42.3810 10.2740 110° East 540 621 35,000  Level FlightAware ADS-B
Sun 06:47:50 AM 42.3550 10.3690 110° East 539 620 35,000  Level FlightAware ADS-B
Sun 06:48:32 AM 42.3190 10.4990 110° East 538 619 35,000  Level FlightAware ADS-B
Sun 06:49:13 AM 42.2710 10.6210 118° Southeast 543 625 35,000  Level FlightAware ADS-B
Sun 06:49:54 AM 42.2090 10.7280 128° Southeast 537 618 35,000  Level FlightAware ADS-B
Sun 06:50:38 AM 42.1410 10.8500 127° Southeast 541 623 35,000  Level FlightAware ADS-B
Sun 06:51:19 AM 42.0820 10.9590 126° Southeast 536 617 35,000  Level FlightAware ADS-B
Sun 06:51:59 AM 42.0240 11.0680 126° Southeast 535 616 35,000  Level FlightAware ADS-B
Sun 06:52:40 AM 41.9650 11.1790 126° Southeast 534 615 35,000  Level FlightAware ADS-B
Sun 06:53:19 AM 41.9060 11.2870 126° Southeast 534 615 35,000  Level FlightAware ADS-B
Sun 06:54:00 AM 41.8480 11.3970 125° Southeast 532 612 35,000  Level FlightAware ADS-B
Sun 06:54:35 AM 41.8030 11.4950 122° Southeast 536 617 35,000  Level FlightAware ADS-B
Sun 06:55:11 AM 41.7570 11.5960 121° Southeast 531 611 35,000  Level FlightAware ADS-B
Sun 06:55:55 AM 41.6980 11.7240 122° Southeast 530 610 35,000  Level FlightAware ADS-B
Sun 06:56:26 AM 41.6580 11.8060 123° Southeast 534 615 35,000  Level FlightAware ADS-B
Sun 06:57:05 AM 41.6060 11.9190 122° Southeast 529 609 35,000  Level FlightAware ADS-B
Sun 06:57:51 AM 41.5470 12.0480 121° Southeast 529 609 35,000  Level FlightAware ADS-B
Sun 06:58:22 AM 41.5080 12.1310 122° Southeast 528 608 35,000  Level FlightAware ADS-B
Sun 06:59:08 AM 41.4470 12.2610 122° Southeast 528 608 35,000  Level FlightAware ADS-B
Sun 07:00:12 AM 41.3650 12.4360 122° Southeast 534 615 35,000  Level FlightAware ADS-B
Sun 07:00:42 AM 41.3230 12.5240 122° Southeast 534 615 35,000  Level FlightAware ADS-B
Sun 07:01:27 AM 41.2660 12.6450 122° Southeast 534 615 35,000  Level FlightAware ADS-B
Sun 07:02:07 AM 41.2160 12.7510 122° Southeast 535 616 35,000  Level FlightAware ADS-B
Sun 07:02:52 AM 41.1560 12.8780 122° Southeast 534 615 35,000  Level FlightAware ADS-B
Sun 07:03:32 AM 41.1010 12.9920 123° Southeast 534 615 35,000  Level FlightAware ADS-B
Sun 07:04:12 AM 41.0490 13.1010 122° Southeast 532 612 35,000  Level FlightAware ADS-B
Sun 07:04:57 AM 40.9910 13.2230 122° Southeast 533 613 35,000  Level FlightAware ADS-B
Sun 07:05:32 AM 40.9450 13.3180 123° Southeast 532 612 35,000  Level FlightAware ADS-B
Sun 07:06:12 AM 40.8950 13.4220 122° Southeast 532 612 35,000  Level FlightAware ADS-B
Sun 07:06:57 AM 40.8300 13.5550 123° Southeast 532 612 35,000  Level FlightAware ADS-B
Sun 07:07:37 AM 40.7790 13.6600 123° Southeast 532 612 35,000  Level FlightAware ADS-B
Sun 07:08:27 AM 40.7100 13.8010 123° Southeast 532 612 35,000  Level FlightAware ADS-B
Sun 07:09:06 AM 40.6580 13.9070 123° Southeast 533 613 35,000  Level FlightAware ADS-B
Sun 07:09:46 AM 40.6040 14.0170 123° Southeast 532 612 35,000  Level FlightAware ADS-B
Sun 07:10:22 AM 40.5560 14.1130 123° Southeast 532 612 35,000  Level FlightAware ADS-B
Sun 07:11:30 AM 40.4650 14.2970 123° Southeast 531 611 35,000  Level FlightAware ADS-B
Sun 07:12:10 AM 40.4100 14.4060 124° Southeast 532 612 35,000  Level FlightAware ADS-B
Sun 07:12:46 AM 40.3610 14.5040 123° Southeast 533 613 35,000  Level FlightAware ADS-B
Sun 07:13:28 AM 40.3040 14.6190 123° Southeast 533 613 35,000  Level FlightAware ADS-B
Sun 07:14:06 AM 40.2520 14.7220 123° Southeast 535 616 35,000  Level FlightAware ADS-B
Sun 07:14:52 AM 40.1900 14.8440 124° Southeast 536 617 35,000  Level FlightAware ADS-B
Sun 07:15:40 AM 40.1240 14.9740 124° Southeast 537 618 35,000  Level FlightAware ADS-B
Sun 07:16:16 AM 40.0740 15.0730 123° Southeast 538 619 35,000  Level FlightAware ADS-B
Sun 07:17:00 AM 40.0120 15.1930 124° Southeast 540 621 35,000  Level FlightAware ADS-B
Sun 07:17:26 AM 39.9780 15.2610 123° Southeast 540 621 35,000  Level FlightAware ADS-B
Sun 07:18:06 AM 39.9210 15.3710 124° Southeast 541 623 35,000  Level FlightAware ADS-B
Sun 07:18:50 AM 39.8610 15.4880 124° Southeast 542 624 35,000  Level FlightAware ADS-B
Sun 07:19:36 AM 39.7970 15.6100 124° Southeast 543 625 35,000 462 Level FlightAware ADS-B
Sun 07:20:08 AM 39.7520 15.6980 124° Southeast 541 623 35,600 1,167 Climbing FlightAware ADS-B
Sun 07:20:48 AM 39.6950 15.8070 124° Southeast 543 625 36,400 1,271 Climbing FlightAware ADS-B
Sun 07:21:33 AM 39.6330 15.9260 124° Southeast 535 616 37,400 1,432 Climbing FlightAware ADS-B
Sun 07:22:16 AM 39.5730 16.0400 124° Southeast 523 602 38,500 1,055 Climbing FlightAware ADS-B
Sun 07:23:04 AM 39.5070 16.1640 125° Southeast 524 603 39,000 357 Climbing FlightAware ADS-B
Sun 07:23:40 AM 39.4580 16.2570 124° Southeast 528 608 39,000  Level FlightAware ADS-B
Sun 07:24:08 AM 39.4190 16.3310 124° Southeast 526 605 39,000  Level FlightAware ADS-B
Sun 07:24:46 AM 39.3670 16.4330 123° Southeast 528 608 39,000  Level FlightAware ADS-B
Sun 07:25:30 AM 39.3250 16.5590 113° Southeast 529 609 39,000  Level FlightAware ADS-B
Sun 07:26:10 AM 39.2870 16.6760 113° Southeast 527 606 39,000  Level FlightAware ADS-B
Sun 07:26:46 AM 39.2540 16.7770 113° Southeast 530 610 39,000  Level FlightAware ADS-B
Sun 07:27:26 AM 39.2170 16.8980 112° Southeast 527 606 39,000  Level FlightAware ADS-B
Sun 07:28:04 AM 39.1840 17.0050 112° Southeast 528 608 39,000  Level FlightAware ADS-B
Sun 07:28:59 AM 39.1420 17.1410 112° Southeast 517 595 39,000  Level FlightAware ADS-B
Sun 07:29:27 AM 39.2030 16.9450 292° West 527 606 39,000  Level FlightAware ADS-B
Sun 07:30:17 AM 39.0690 17.3780 112° Southeast 532 612 39,000  Level FlightAware ADS-B
Sun 07:30:57 AM 39.0250 17.5140 113° Southeast 533 613 39,000  Level FlightAware ADS-B
Sun 07:31:40 AM 38.9850 17.6410 112° Southeast 532 612 39,000  Level FlightAware ADS-B
Sun 07:32:02 AM 38.9670 17.6960 113° Southeast 532 612 39,000  Level FlightAware ADS-B
Sun 07:32:45 AM 38.9290 17.8180 112° Southeast 528 608 39,000  Level FlightAware ADS-B
Sun 07:33:11 AM 38.9150 17.8620 112° Southeast 517 595 39,000  Level FlightAware ADS-B
Sun 07:33:32 AM 38.8870 17.9500 112° Southeast 531 611 39,000  Level FlightAware ADS-B
Sun 07:34:15 AM 38.8420 18.0890 113° Southeast 531 611 39,000  Level FlightAware ADS-B
Sun 07:34:55 AM 38.8040 18.2100 112° Southeast 534 615 39,000  Level FlightAware ADS-B
Sun 07:35:40 AM 38.7640 18.3320 113° Southeast 539 620 39,000  Level FlightAware ADS-B
Sun 07:36:05 AM 38.7370 18.4150 113° Southeast 543 625 39,000  Level FlightAware ADS-B
Sun 07:36:46 AM 38.6970 18.5370 113° Southeast 546 628 39,000  Level FlightAware ADS-B
Sun 07:37:36 AM 38.6490 18.6850 113° Southeast 548 631 39,000  Level FlightAware ADS-B
Sun 07:38:10 AM 38.6150 18.7880 113° Southeast 548 631 39,000  Level FlightAware ADS-B
Sun 07:38:41 AM 38.5860 18.8790 112° Southeast 552 635 39,000  Level FlightAware ADS-B
Sun 07:39:25 AM 38.5480 19.0170 109° East 552 635 39,000  Level FlightAware ADS-B
Sun 07:40:06 AM 38.5120 19.1400 110° East 554 638 39,000  Level FlightAware ADS-B
Sun 07:40:45 AM 38.4760 19.2640 110° East 553 636 39,000  Level FlightAware ADS-B
Sun 07:41:26 AM 38.4400 19.3860 111° Southeast 553 636 39,000  Level FlightAware ADS-B
Sun 07:42:10 AM 38.3990 19.5230 111° Southeast 555 639 39,000  Level FlightAware ADS-B
Sun 07:42:52 AM 38.3610 19.6500 111° Southeast 555 639 39,000  Level FlightAware ADS-B
Sun 07:43:30 AM 38.3260 19.7680 111° Southeast 553 636 39,000  Level FlightAware ADS-B
Sun 07:44:15 AM 38.2850 19.9040 111° Southeast 553 636 39,000  Level FlightAware ADS-B
Sun 07:45:01 AM 38.2420 20.0420 112° Southeast 551 634 39,000  Level FlightAware ADS-B
Sun 07:45:40 AM 38.2060 20.1620 111° Southeast 551 634 39,000  Level FlightAware ADS-B
Sun 07:46:21 AM 38.1680 20.2850 111° Southeast 550 633 39,000  Level FlightAware ADS-B
Sun 07:46:50 AM 38.1410 20.3740 111° Southeast 550 633 39,000  Level FlightAware ADS-B
Sun 07:47:36 AM 38.0980 20.5120 112° Southeast 549 632 39,000  Level FlightAware ADS-B
Sun 07:48:16 AM 38.0610 20.6310 112° Southeast 547 629 39,000  Level FlightAware ADS-B
Sun 07:48:57 AM 38.0230 20.7540 111° Southeast 546 628 39,000  Level FlightAware ADS-B
Sun 07:49:37 AM 37.9860 20.8730 111° Southeast 545 627 39,000  Level FlightAware ADS-B
Sun 07:50:21 AM 37.9440 21.0060 112° Southeast 545 627 39,000  Level FlightAware ADS-B
Sun 07:51:07 AM 37.9000 21.1430 112° Southeast 544 626 39,000  Level FlightAware ADS-B
Sun 07:51:31 AM 37.8800 21.2070 112° Southeast 543 625 39,000  Level FlightAware ADS-B
Sun 07:52:35 AM 37.8280 21.3740 111° Southeast 542 624 39,000  Level FlightAware ADS-B
Sun 07:53:13 AM 37.7990 21.4700 111° Southeast 542 624 39,000  Level FlightAware ADS-B
Sun 07:53:37 AM 37.7810 21.5300 111° Southeast 542 624 39,000  Level FlightAware ADS-B
Sun 07:54:25 AM 37.7440 21.6510 111° Southeast 542 624 39,000  Level FlightAware ADS-B
Sun 07:55:02 AM 37.7160 21.7440 111° Southeast 542 624 39,000  Level FlightAware ADS-B
Sun 07:55:36 AM 37.6900 21.8290 111° Southeast 542 624 39,000  Level FlightAware ADS-B
Sun 07:56:12 AM 37.6620 21.9200 111° Southeast 542 624 39,000  Level FlightAware ADS-B
Sun 07:56:47 AM 37.5780 22.1380 116° Southeast 538 619 39,000  Level FlightAware ADS-B
Sun 07:57:37 AM 37.5400 22.2620 111° Southeast 538 619 39,000  Level FlightAware ADS-B
Sun 07:58:17 AM 37.4910 22.3990 114° Southeast 541 623 39,000  Level FlightAware ADS-B
Sun 07:59:14 AM 37.4430 22.5480 112° Southeast 541 623 39,000  Level FlightAware ADS-B
Sun 07:59:54 AM 37.3950 22.6840 114° Southeast 540 621 39,000  Level FlightAware ADS-B
Sun 08:00:29 AM 37.3610 22.7850 113° Southeast 540 621 39,000  Level FlightAware ADS-B
Sun 08:01:10 AM 37.3210 22.9030 113° Southeast 541 623 39,000  Level FlightAware ADS-B
Sun 08:01:45 AM 37.2860 23.0060 113° Southeast 540 621 39,000  Level FlightAware ADS-B
Sun 08:02:31 AM 37.2410 23.1390 113° Southeast 540 621 39,000  Level FlightAware ADS-B
Sun 08:03:13 AM 37.2010 23.2550 113° Southeast 540 621 39,000  Level FlightAware ADS-B
Sun 08:03:53 AM 37.1590 23.3740 114° Southeast 540 621 39,000  Level FlightAware ADS-B
Sun 08:04:37 AM 37.1150 23.5020 113° Southeast 540 621 39,000  Level FlightAware ADS-B
Sun 08:05:17 AM 37.0760 23.6150 113° Southeast 540 621 39,000  Level FlightAware ADS-B
Sun 08:06:01 AM 37.0320 23.7400 114° Southeast 540 621 39,000  Level FlightAware ADS-B
Sun 08:06:41 AM 36.9910 23.8560 114° Southeast 540 621 39,000  Level FlightAware ADS-B
Sun 08:07:20 AM 36.9520 23.9650 114° Southeast 540 621 39,000  Level FlightAware ADS-B
Sun 08:07:59 AM 36.9110 24.0790 114° Southeast 539 620 39,000  Level FlightAware ADS-B
Sun 08:08:33 AM 36.8770 24.1740 114° Southeast 540 621 39,000  Level FlightAware ADS-B
Sun 08:09:03 AM 36.8460 24.2610 114° Southeast 540 621 39,000  Level FlightAware ADS-B
Sun 08:09:44 AM 36.8040 24.3750 115° Southeast 539 620 39,000  Level FlightAware ADS-B
Sun 08:10:25 AM 36.7620 24.4920 114° Southeast 539 620 39,000  Level FlightAware ADS-B
Sun 08:10:53 AM 36.7330 24.5730 114° Southeast 540 621 39,000  Level FlightAware ADS-B
Sun 08:11:37 AM 36.6880 24.6940 115° Southeast 540 621 39,000  Level FlightAware ADS-B
Sun 08:12:17 AM 36.6460 24.8100 114° Southeast 540 621 39,000  Level FlightAware ADS-B
Sun 08:12:47 AM 36.6150 24.8950 114° Southeast 540 621 39,000  Level FlightAware ADS-B
Sun 08:13:31 AM 36.5680 25.0210 115° Southeast 541 623 39,000  Level FlightAware ADS-B
Sun 08:14:07 AM 36.5310 25.1210 115° Southeast 540 621 39,000  Level FlightAware ADS-B
Sun 08:14:39 AM 36.4970 25.2120 115° Southeast 541 623 39,000  Level FlightAware ADS-B
Sun 08:15:17 AM 36.4580 25.3170 115° Southeast 540 621 39,000  Level FlightAware ADS-B
Sun 08:15:49 AM 36.4240 25.4100 114° Southeast 540 621 39,000  Level FlightAware ADS-B
Sun 08:16:31 AM 36.3790 25.5290 115° Southeast 540 621 39,000  Level FlightAware ADS-B
Sun 08:17:19 AM 36.3290 25.6610 115° Southeast 538 619 39,000  Level FlightAware ADS-B
Sun 08:17:55 AM 36.2910 25.7630 115° Southeast 537 618 39,000  Level FlightAware ADS-B
Sun 08:18:35 AM 36.2490 25.8730 115° Southeast 536 617 39,000  Level FlightAware ADS-B
Sun 08:19:17 AM 36.2050 25.9880 115° Southeast 537 618 39,000  Level FlightAware ADS-B
Sun 08:19:57 AM 36.1620 26.1000 115° Southeast 537 618 39,000  Level FlightAware ADS-B
Sun 08:20:31 AM 36.1260 26.1950 115° Southeast 536 617 39,000  Level FlightAware ADS-B
Sun 08:21:19 AM 36.0740 26.3300 115° Southeast 537 618 39,000  Level FlightAware ADS-B
Sun 08:21:59 AM 36.0320 26.4390 115° Southeast 538 619 39,000  Level FlightAware ADS-B
Sun 08:22:43 AM 35.9850 26.5610 115° Southeast 538 619 39,000  Level FlightAware ADS-B
Sun 08:23:27 AM 35.9370 26.6840 116° Southeast 537 618 39,000  Level FlightAware ADS-B
Sun 08:23:59 AM 35.9040 26.7710 115° Southeast 537 618 39,000  Level FlightAware ADS-B
Sun 08:24:49 AM 35.8580 26.8900 115° Southeast 537 618 39,000  Level FlightAware ADS-B
Sun 08:25:23 AM 35.8150 26.9970 116° Southeast 533 613 39,000  Level FlightAware ADS-B
Sun 08:26:22 AM 35.7510 27.1600 116° Southeast 536 617 39,000  Level FlightAware ADS-B
Sun 08:27:02 AM 35.7160 27.2540 115° Southeast 536 617 39,000  Level FlightAware ADS-B
Sun 08:27:46 AM 35.6640 27.3840 116° Southeast 535 616 39,000  Level FlightAware ADS-B
Sun 08:28:34 AM 35.6210 27.4970 115° Southeast 535 616 39,000  Level FlightAware ADS-B
Sun 08:28:59 AM 35.5990 27.5550 115° Southeast 535 616 39,000  Level FlightAware ADS-B
Sun 08:29:37 AM 35.5650 27.6440 115° Southeast 535 616 39,000  Level FlightAware ADS-B
Sun 08:30:26 AM 35.4870 27.8230 118° Southeast 39,000  Level FlightAware ADS-B
Sun 08:31:07 AM 35.4410 27.9400 116° Southeast 530 610 39,000  Level FlightAware ADS-B
Sun 08:31:37 AM 35.4080 28.0200 117° Southeast 530 610 39,000  Level FlightAware ADS-B
Sun 08:32:11 AM 35.3700 28.1150 116° Southeast 534 615 39,000  Level FlightAware ADS-B
Sun 08:32:56 AM 35.3210 28.2370 116° Southeast 535 616 39,000  Level FlightAware ADS-B
Sun 08:33:36 AM 35.2760 28.3470 117° Southeast 535 616 39,000  Level FlightAware ADS-B
Sun 08:34:14 AM 35.2340 28.4510 116° Southeast 536 617 39,000  Level FlightAware ADS-B
Sun 08:34:44 AM 35.2000 28.5330 117° Southeast 536 617 39,000  Level FlightAware ADS-B
Sun 08:35:16 AM 35.1650 28.6200 116° Southeast 537 618 39,000  Level FlightAware ADS-B
Sun 08:36:08 AM 35.1130 28.7490 116° Southeast 537 618 39,000  Level FlightAware ADS-B
Sun 08:36:54 AM 35.0570 28.8820 117° Southeast 536 617 39,000  Level FlightAware ADS-B
Sun 08:37:35 AM 35.0110 28.9950 116° Southeast 537 618 39,000  Level FlightAware ADS-B
Sun 08:38:16 AM 34.9670 29.0990 117° Southeast 537 618 39,000  Level FlightAware ADS-B
Sun 08:39:01 AM 34.9190 29.2170 116° Southeast 537 618 39,000  Level FlightAware ADS-B
Sun 08:39:41 AM 34.8700 29.3340 117° Southeast 538 619 39,000  Level FlightAware ADS-B
Sun 08:40:11 AM 34.8360 29.4160 117° Southeast 538 619 39,000  Level FlightAware ADS-B
Sun 08:40:47 AM 34.7960 29.5100 117° Southeast 537 618 39,000  Level FlightAware ADS-B
Sun 08:41:28 AM 34.7510 29.6170 117° Southeast 537 618 39,000  Level FlightAware ADS-B
Sun 08:42:02 AM 34.7110 29.7140 117° Southeast 536 617 39,000  Level FlightAware ADS-B
Sun 08:42:37 AM 34.6720 29.8070 117° Southeast 536 617 39,000  Level FlightAware ADS-B
Sun 08:43:02 AM 34.6460 29.8690 117° Southeast 536 617 39,000  Level FlightAware ADS-B
Sun 08:44:36 AM 34.5390 30.1110 118° Southeast 534 615 39,000  Level FlightAware ADS-B
Sun 08:45:13 AM 34.4860 30.2190 121° Southeast 529 609 39,000  Level FlightAware ADS-B
Sun 08:45:52 AM 34.4390 30.3160 120° Southeast 529 609 39,000  Level FlightAware ADS-B
Sun 08:46:28 AM 34.3950 30.4100 120° Southeast 527 606 39,000  Level FlightAware ADS-B
Sun 08:46:58 AM 34.3590 30.4860 120° Southeast 526 605 39,000  Level FlightAware ADS-B
Sun 08:47:43 AM 34.3040 30.6010 120° Southeast 524 603 39,000  Level FlightAware ADS-B
Sun 08:48:22 AM 34.2540 30.7050 120° Southeast 522 601 39,000  Level FlightAware ADS-B
Sun 08:48:48 AM 34.2250 30.7660 120° Southeast 521 600 39,000  Level FlightAware ADS-B
Sun 08:49:32 AM 34.1700 30.8820 120° Southeast 522 601 39,000  Level FlightAware ADS-B
Sun 08:50:12 AM 34.1220 30.9810 120° Southeast 520 598 39,000  Level FlightAware ADS-B
Sun 08:50:52 AM 34.0730 31.0820 120° Southeast 519 597 39,000  Level FlightAware ADS-B
Sun 08:51:38 AM 34.0170 31.1970 120° Southeast 519 597 39,000  Level FlightAware ADS-B
Sun 08:52:13 AM 33.9740 31.2840 121° Southeast 517 595 39,000  Level FlightAware ADS-B
Sun 08:52:53 AM 33.9250 31.3850 120° Southeast 518 596 39,000  Level FlightAware ADS-B
Sun 08:53:33 AM 33.8770 31.4830 121° Southeast 518 596 39,000  Level FlightAware ADS-B
Sun 08:54:18 AM 33.8220 31.5960 120° Southeast 513 590 39,000  Level FlightAware ADS-B
Sun 08:55:04 AM 33.7660 31.7100 121° Southeast 513 590 39,000  Level FlightAware ADS-B
Sun 08:55:36 AM 33.7270 31.7880 121° Southeast 513 590 39,000  Level FlightAware ADS-B
Sun 08:56:12 AM 33.6850 31.8740 120° Southeast 514 592 39,000  Level FlightAware ADS-B
Sun 08:56:51 AM 33.6360 31.9740 120° Southeast 514 592 39,000  Level FlightAware ADS-B
Sun 08:57:27 AM 33.5930 32.0600 121° Southeast 513 590 39,000  Level FlightAware ADS-B
Sun 08:58:06 AM 33.5430 32.1610 121° Southeast 514 592 39,000  Level FlightAware ADS-B
Sun 08:58:47 AM 33.4960 32.2530 121° Southeast 514 592 39,000  Level FlightAware ADS-B
Sun 08:59:26 AM 33.4460 32.3540 121° Southeast 514 592 39,000  Level FlightAware ADS-B
Sun 09:00:08 AM 33.3960 32.4540 121° Southeast 514 592 39,000 -73 Level FlightAware ADS-B
Sun 09:00:48 AM 33.3450 32.5550 121° Southeast 512 589 38,900 -1,500 Descending FlightAware ADS-B
Sun 09:01:32 AM 33.2900 32.6640 121° Southeast 515 593 36,900 -2,824 Descending FlightAware ADS-B
Sun 09:02:13 AM 33.2390 32.7640 121° Southeast 523 602 34,900 -1,898 Descending FlightAware ADS-B
Sun 09:03:10 AM 33.1730 32.8960 121° Southeast 514 592 33,800 -2,236 Descending FlightAware ADS-B
Sun 09:04:03 AM 33.1030 33.0300 122° Southeast 501 577 30,800 -2,690 Descending FlightAware ADS-B
Sun 09:05:06 AM 33.0270 33.1770 122° Southeast 481 554 28,600 -2,098 Descending FlightAware ADS-B
Sun 09:06:06 AM 32.9580 33.3120 121° Southeast 461 531 26,500 -2,155 Descending FlightAware ADS-B
Sun 09:06:49 AM 32.9110 33.4040 121° Southeast 451 519 24,900 -2,139 Descending FlightAware ADS-B
Sun 09:07:47 AM 32.8480 33.5240 122° Southeast 429 494 22,900 -2,188 Descending FlightAware ADS-B
Sun 09:08:25 AM 32.8090 33.5990 122° Southeast 422 486 21,400 -2,338 Descending FlightAware ADS-B
Sun 09:09:04 AM 32.7690 33.6770 121° Southeast 411 473 19,900 -2,462 Descending FlightAware ADS-B
Sun 09:09:43 AM 32.7310 33.7500 122° Southeast 407 468 18,200 -2,519 Descending FlightAware ADS-B
Sun 09:10:25 AM 32.6890 33.8300 122° Southeast 401 461 16,500 -2,384 Descending FlightAware ADS-B
Sun 09:10:56 AM 32.6580 33.8880 122° Southeast 395 455 15,300 -2,206 Descending FlightAware ADS-B
Sun 09:11:33 AM 32.6240 33.9530 122° Southeast 388 447 14,000 -2,024 Descending FlightAware ADS-B
Sun 09:12:19 AM 32.5800 34.0360 122° Southeast 374 430 12,500 -1,807 Descending FlightAware ADS-B
Sun 09:12:56 AM 32.5470 34.0980 122° Southeast 359 413 11,500 -1,333 Descending FlightAware ADS-B
Sun 09:13:31 AM 32.5160 34.1550 123° Southeast 340 391 10,900 -1,000 Descending FlightAware ADS-B
Sun 09:14:08 AM 32.4760 34.2060 133° Southeast 316 364 10,300 -439 Descending FlightAware ADS-B
Sun 09:14:53 AM 32.4340 34.2560 135° Southeast 272 313 10,300 -435 Level FlightAware ADS-B
Sun 09:15:17 AM 32.4130 34.2800 136° Southeast 268 308 9,800 -1,412 Descending FlightAware ADS-B
Sun 09:15:27 AM 32.4030 34.2910 137° Southeast 276 318 9,500 -1,091 Descending FlightAware ADS-B
Sun 09:16:01 AM 32.3720 34.3280 135° Southeast 276 318 9,000 -980 Descending FlightAware ADS-B
Sun 09:16:16 AM 32.3580 34.3440 136° Southeast 277 319 8,700 -889 Descending FlightAware ADS-B
Sun 09:16:28 AM 32.3480 34.3560 135° Southeast 277 319 8,600 -360 Descending FlightAware ADS-B
Sun 09:17:06 AM 32.3160 34.3940 135° Southeast 276 318 8,400 -167 Descending FlightAware ADS-B
Sun 09:17:40 AM 32.2900 34.4240 136° Southeast 276 318 8,400  Level FlightAware ADS-B
Sun 09:17:52 AM 32.2810 34.4350 134° Southeast 276 318 8,400  Level FlightAware ADS-B
Sun 09:18:16 AM 32.2630 34.4570 134° Southeast 276 318 8,400  Level FlightAware ADS-B
Sun 09:21:00 AM 32.0255 34.8242 125° Southeast  Level FlightAware Approximate
Sun 09:22:00 AM 32.0000 34.8667 125° Southeast  Level FlightAware Approximate
Sun 09:23:00 AM 32.0095 34.8769 125° Southeast  Level Estimated
Sun 09:24:00 AM 32.0095 34.8769 125° Southeast  Level Estimated
Sun 09:25:00 AM 32.0095 34.8769 125° Southeast  Level Estimated
Sun 09:26:00 AM 32.0095 34.8769 125° Southeast  Level Estimated
Sun 09:27:00 AM 32.0095 34.8769 125° Southeast  Level Estimated
Sun 09:28:00 AM 32.0095 34.8769 125° Southeast  Level Estimated
Sun 09:29:00 AM 32.0095 34.8769 125° Southeast  Level Estimated

Login

Don't have an account? Register now (free) for customized features, flight alerts, and more!